Aeroporto :
LOGIN :

Iscrizione | Disclaimer

   EN    FR    IT 

 










Sommario :    VFR   VFR Marginale   IFR   IFR Intensivo   IFR Molto Intensivo
Visibilità : 
Base nubi : 
>= 8 km
>= 3000ft
5 / 8 km
1000 / 3000 ft
1500m / 5 km
500 / 1000 ft
800 / 1500m
200 / 500 ft
< 800m
< 200 ft
Simboli :   Temporali  Nebbia  Neve Forte  Precipitazioni Forti  Vento > 20 kt
SIGMETs :   Varie  Temporali  Ghiacco  Turbolenza  Onda orograficha  Ceneri Vulcaniche






- Altitudine del aeroporto : 46 ft
- Codice IATA : SNN


EINN - Shannon

ULTIMO METAR :
  • 191400Z 05009KT 9999 SCT025 18/10 Q1020 NOSIG

METARs OBSOLETI :
  • 191330Z 04011KT 9999 BKN025 17/10 Q1020 NOSIG
  • 191300Z 05012KT 9999 SCT024 17/10 Q1020 NOSIG
  • 191230Z 04012KT 9999 SCT024 16/10 Q1020 NOSIG
  • 191200Z 04012KT 9999 SCT024 16/10 Q1020 NOSIG
  • 191130Z 05011KT 9999 SCT024 SCT200 15/10 Q1021 NOSIG

TAF TAF EINN
Valido dal 19 a 12 ore il 20 a 12 ore UTC


191100Z 1912/2012 05013KT 9999 FEW020
BECMG 1920/1922 01007KT
TEMPO 2004/2008 3000 BR BKN005
TEMPO 2008/2010 BKN010
BECMG 2010/2012 04008KT



MetMap, La meteo Aeronautica in un colpo d'occhio ! - Copyright ORBIFLY Dicembre 2007 - Disclaimer

ORBIFLY MET'MAP TEAM :

Programmazione e sviluppo : Alexandra Zaïnal
Concezione : Baudouin d'Aumeries
Aiuto per la programmazione : Marc-Olivier Méhu
Supporto tecnico e logistico : Manuel Goepfert
Aiuto per la traduzione : Arnaldo La Scala

Contatto : metmap@orbifly.com




FONTI E CREDITI :

   NOAA